sensor_id;sensor_type;location;lat;lon;timestamp;pressure;altitude;pressure_sealevel;temperature;humidity
44453;BME280;30155;52.164;21.236;2023-12-20T00:04:25;99719.41;;;5.61;92.67
44453;BME280;30155;52.164;21.236;2023-12-20T00:09:16;99710.64;;;5.61;92.75
44453;BME280;30155;52.164;21.236;2023-12-20T00:14:08;99710.11;;;5.60;92.80
44453;BME280;30155;52.164;21.236;2023-12-20T00:18:59;99703.77;;;5.61;92.90
44453;BME280;30155;52.164;21.236;2023-12-20T00:23:51;99697.45;;;5.63;93.00
44453;BME280;30155;52.164;21.236;2023-12-20T00:28:42;99699.36;;;5.64;93.07
44453;BME280;30155;52.164;21.236;2023-12-20T00:33:34;99698.35;;;5.65;93.02
44453;BME280;30155;52.164;21.236;2023-12-20T00:38:25;99689.77;;;5.65;92.98
44453;BME280;30155;52.164;21.236;2023-12-20T00:43:17;99686.00;;;5.65;93.09
44453;BME280;30155;52.164;21.236;2023-12-20T00:48:09;99679.95;;;5.65;93.08
44453;BME280;30155;52.164;21.236;2023-12-20T00:53:01;99675.52;;;5.66;93.19
44453;BME280;30155;52.164;21.236;2023-12-20T00:57:52;99671.25;;;5.67;93.34
44453;BME280;30155;52.164;21.236;2023-12-20T01:02:44;99669.70;;;5.67;93.21
44453;BME280;30155;52.164;21.236;2023-12-20T01:07:37;99664.17;;;5.66;93.40
44453;BME280;30155;52.164;21.236;2023-12-20T01:12:28;99663.34;;;5.67;93.40
44453;BME280;30155;52.164;21.236;2023-12-20T01:17:20;99659.92;;;5.69;93.42
44453;BME280;30155;52.164;21.236;2023-12-20T01:22:11;99659.91;;;5.68;93.37
44453;BME280;30155;52.164;21.236;2023-12-20T01:27:03;99650.25;;;5.67;93.35
44453;BME280;30155;52.164;21.236;2023-12-20T01:31:54;99648.38;;;5.68;93.45
44453;BME280;30155;52.164;21.236;2023-12-20T01:36:46;99648.19;;;5.67;93.51
44453;BME280;30155;52.164;21.236;2023-12-20T01:41:37;99645.11;;;5.67;93.39
44453;BME280;30155;52.164;21.236;2023-12-20T01:46:29;99640.10;;;5.66;93.59
44453;BME280;30155;52.164;21.236;2023-12-20T01:51:27;99635.80;;;5.66;93.54
44453;BME280;30155;52.164;21.236;2023-12-20T01:56:19;99631.86;;;5.67;93.60
44453;BME280;30155;52.164;21.236;2023-12-20T02:01:58;99627.57;;;5.67;93.70
44453;BME280;30155;52.164;21.236;2023-12-20T02:08:25;99625.64;;;5.65;93.60
44453;BME280;30155;52.164;21.236;2023-12-20T02:14:13;99619.63;;;5.65;93.78
44453;BME280;30155;52.164;21.236;2023-12-20T02:19:12;99610.33;;;5.65;93.80
44453;BME280;30155;52.164;21.236;2023-12-20T02:24:04;99608.92;;;5.64;93.65
44453;BME280;30155;52.164;21.236;2023-12-20T02:29:21;99606.02;;;5.64;93.70
44453;BME280;30155;52.164;21.236;2023-12-20T02:34:17;99604.45;;;5.63;93.86
44453;BME280;30155;52.164;21.236;2023-12-20T02:39:14;99600.67;;;5.63;93.85
44453;BME280;30155;52.164;21.236;2023-12-20T02:44:10;99597.07;;;5.64;93.86
44453;BME280;30155;52.164;21.236;2023-12-20T02:49:18;99600.67;;;5.64;93.87
44453;BME280;30155;52.164;21.236;2023-12-20T02:54:10;99588.98;;;5.63;93.85
44453;BME280;30155;52.164;21.236;2023-12-20T02:59:01;99588.27;;;5.63;93.93
44453;BME280;30155;52.164;21.236;2023-12-20T03:03:53;99585.02;;;5.63;93.71
44453;BME280;30155;52.164;21.236;2023-12-20T03:08:45;99578.99;;;5.63;93.78
44453;BME280;30155;52.164;21.236;2023-12-20T03:13:36;99572.25;;;5.61;93.66
44453;BME280;30155;52.164;21.236;2023-12-20T03:18:28;99572.61;;;5.60;93.75
44453;BME280;30155;52.164;21.236;2023-12-20T03:23:19;99566.40;;;5.60;93.68
44453;BME280;30155;52.164;21.236;2023-12-20T03:28:11;99562.42;;;5.59;93.78
44453;BME280;30155;52.164;21.236;2023-12-20T03:33:02;99566.20;;;5.59;93.69
44453;BME280;30155;52.164;21.236;2023-12-20T03:37:54;99568.60;;;5.58;93.83
44453;BME280;30155;52.164;21.236;2023-12-20T03:42:45;99559.81;;;5.57;93.97
44453;BME280;30155;52.164;21.236;2023-12-20T03:47:36;99558.29;;;5.58;93.91
44453;BME280;30155;52.164;21.236;2023-12-20T03:52:28;99558.98;;;5.58;93.90
44453;BME280;30155;52.164;21.236;2023-12-20T03:57:20;99555.88;;;5.58;93.90
44453;BME280;30155;52.164;21.236;2023-12-20T04:02:11;99561.02;;;5.57;93.74
44453;BME280;30155;52.164;21.236;2023-12-20T04:07:03;99562.23;;;5.58;93.85
44453;BME280;30155;52.164;21.236;2023-12-20T04:11:54;99554.33;;;5.58;93.96
44453;BME280;30155;52.164;21.236;2023-12-20T04:16:46;99544.52;;;5.57;93.97
44453;BME280;30155;52.164;21.236;2023-12-20T04:21:38;99557.40;;;5.57;93.88
44453;BME280;30155;52.164;21.236;2023-12-20T04:26:30;99554.98;;;5.56;93.85
44453;BME280;30155;52.164;21.236;2023-12-20T04:31:29;99555.15;;;5.56;93.83
44453;BME280;30155;52.164;21.236;2023-12-20T04:36:25;99555.48;;;5.56;93.92
44453;BME280;30155;52.164;21.236;2023-12-20T04:41:32;99548.45;;;5.57;94.03
44453;BME280;30155;52.164;21.236;2023-12-20T04:46:36;99550.35;;;5.57;93.95
44453;BME280;30155;52.164;21.236;2023-12-20T04:51:28;99558.61;;;5.57;93.93
44453;BME280;30155;52.164;21.236;2023-12-20T04:56:23;99554.81;;;5.57;93.92
44453;BME280;30155;52.164;21.236;2023-12-20T05:01:17;99556.54;;;5.57;93.92
44453;BME280;30155;52.164;21.236;2023-12-20T05:06:10;99554.14;;;5.56;93.81
44453;BME280;30155;52.164;21.236;2023-12-20T05:11:05;99545.86;;;5.56;94.00
44453;BME280;30155;52.164;21.236;2023-12-20T05:15:56;99537.77;;;5.55;93.98
44453;BME280;30155;52.164;21.236;2023-12-20T05:20:51;99537.09;;;5.56;94.07
44453;BME280;30155;52.164;21.236;2023-12-20T05:25:45;99532.45;;;5.56;94.05
44453;BME280;30155;52.164;21.236;2023-12-20T05:30:36;99530.38;;;5.55;94.19
44453;BME280;30155;52.164;21.236;2023-12-20T05:35:27;99533.48;;;5.55;94.25
44453;BME280;30155;52.164;21.236;2023-12-20T05:40:19;99532.82;;;5.57;94.32
44453;BME280;30155;52.164;21.236;2023-12-20T05:45:10;99530.05;;;5.56;94.29
44453;BME280;30155;52.164;21.236;2023-12-20T05:50:02;99533.88;;;5.58;94.33
44453;BME280;30155;52.164;21.236;2023-12-20T05:54:54;99535.09;;;5.58;94.31
44453;BME280;30155;52.164;21.236;2023-12-20T05:59:48;99531.65;;;5.58;94.50
44453;BME280;30155;52.164;21.236;2023-12-20T06:04:42;99530.98;;;5.59;94.36
44453;BME280;30155;52.164;21.236;2023-12-20T06:09:34;99527.73;;;5.60;94.56
44453;BME280;30155;52.164;21.236;2023-12-20T06:14:27;99524.80;;;5.61;94.43
44453;BME280;30155;52.164;21.236;2023-12-20T06:19:18;99533.06;;;5.61;94.48
44453;BME280;30155;52.164;21.236;2023-12-20T06:24:12;99529.45;;;5.60;94.33
44453;BME280;30155;52.164;21.236;2023-12-20T06:29:03;99534.95;;;5.60;94.52
44453;BME280;30155;52.164;21.236;2023-12-20T06:33:55;99538.73;;;5.61;94.32
44453;BME280;30155;52.164;21.236;2023-12-20T06:38:51;99539.23;;;5.59;94.27
44453;BME280;30155;52.164;21.236;2023-12-20T06:43:42;99538.55;;;5.60;94.39
44453;BME280;30155;52.164;21.236;2023-12-20T06:48:41;99537.15;;;5.59;94.34
44453;BME280;30155;52.164;21.236;2023-12-20T06:53:33;99537.67;;;5.58;94.45
44453;BME280;30155;52.164;21.236;2023-12-20T06:58:24;99536.30;;;5.59;94.39
44453;BME280;30155;52.164;21.236;2023-12-20T07:03:16;99539.20;;;5.57;94.21
44453;BME280;30155;52.164;21.236;2023-12-20T07:08:07;99535.56;;;5.57;94.32
44453;BME280;30155;52.164;21.236;2023-12-20T07:12:59;99532.84;;;5.57;94.42
44453;BME280;30155;52.164;21.236;2023-12-20T07:17:50;99539.55;;;5.58;94.39
44453;BME280;30155;52.164;21.236;2023-12-20T07:22:46;99539.40;;;5.59;94.43
44453;BME280;30155;52.164;21.236;2023-12-20T07:27:37;99539.23;;;5.60;94.26
44453;BME280;30155;52.164;21.236;2023-12-20T07:32:30;99542.85;;;5.60;94.36
44453;BME280;30155;52.164;21.236;2023-12-20T07:37:23;99544.08;;;5.61;94.56
44453;BME280;30155;52.164;21.236;2023-12-20T07:42:14;99535.50;;;5.62;94.42
44453;BME280;30155;52.164;21.236;2023-12-20T07:47:08;99535.52;;;5.63;94.45
44453;BME280;30155;52.164;21.236;2023-12-20T07:52:33;99539.11;;;5.63;94.43
44453;BME280;30155;52.164;21.236;2023-12-20T08:32:52;99536.84;;;5.71;94.58
44453;BME280;30155;52.164;21.236;2023-12-20T08:46:32;99544.09;;;5.72;94.36
44453;BME280;30155;52.164;21.236;2023-12-20T08:52:20;99540.46;;;5.71;94.33
44453;BME280;30155;52.164;21.236;2023-12-20T09:05:01;99528.69;;;5.76;94.55
44453;BME280;30155;52.164;21.236;2023-12-20T09:11:06;99516.55;;;5.80;94.36
44453;BME280;30155;52.164;21.236;2023-12-20T09:16:56;99511.84;;;5.86;94.22
44453;BME280;30155;52.164;21.236;2023-12-20T09:22:30;99504.80;;;5.86;94.09
44453;BME280;30155;52.164;21.236;2023-12-20T09:27:24;99500.48;;;5.86;94.16
44453;BME280;30155;52.164;21.236;2023-12-20T09:32:55;99494.30;;;5.86;93.92
44453;BME280;30155;52.164;21.236;2023-12-20T09:38:10;99485.64;;;5.82;93.85
44453;BME280;30155;52.164;21.236;2023-12-20T09:44:04;99477.02;;;5.81;94.13
44453;BME280;30155;52.164;21.236;2023-12-20T09:57:37;99467.41;;;5.84;94.19
44453;BME280;30155;52.164;21.236;2023-12-20T10:31:09;99457.52;;;5.87;94.05
44453;BME280;30155;52.164;21.236;2023-12-20T11:57:34;99368.05;;;5.96;93.80
44453;BME280;30155;52.164;21.236;2023-12-20T12:51:26;99321.77;;;5.71;93.69
44453;BME280;30155;52.164;21.236;2023-12-20T13:04:07;99322.02;;;5.64;93.69
44453;BME280;30155;52.164;21.236;2023-12-20T13:10:28;99320.89;;;5.58;93.53
44453;BME280;30155;52.164;21.236;2023-12-20T13:16:29;99323.91;;;5.53;93.42
44453;BME280;30155;52.164;21.236;2023-12-20T13:28:46;99334.33;;;5.49;93.70
44453;BME280;30155;52.164;21.236;2023-12-20T13:48:38;99326.52;;;5.43;93.12
44453;BME280;30155;52.164;21.236;2023-12-20T14:08:14;99325.40;;;5.38;92.68
44453;BME280;30155;52.164;21.236;2023-12-20T14:14:05;99316.38;;;5.31;92.73
44453;BME280;30155;52.164;21.236;2023-12-20T14:19:21;99307.48;;;5.24;92.61
44453;BME280;30155;52.164;21.236;2023-12-20T14:24:18;99317.58;;;5.21;92.84
44453;BME280;30155;52.164;21.236;2023-12-20T14:29:29;99330.06;;;5.18;92.90
44453;BME280;30155;52.164;21.236;2023-12-20T14:46:57;99345.05;;;5.01;92.66
44453;BME280;30155;52.164;21.236;2023-12-20T14:51:48;99346.91;;;4.99;92.61
44453;BME280;30155;52.164;21.236;2023-12-20T14:57:04;99344.30;;;4.97;92.37
44453;BME280;30155;52.164;21.236;2023-12-20T15:01:56;99345.27;;;4.92;92.31
44453;BME280;30155;52.164;21.236;2023-12-20T15:06:48;99343.86;;;4.91;92.36
44453;BME280;30155;52.164;21.236;2023-12-20T15:11:39;99340.25;;;4.90;92.28
44453;BME280;30155;52.164;21.236;2023-12-20T15:16:31;99337.61;;;4.87;91.94
44453;BME280;30155;52.164;21.236;2023-12-20T15:21:25;99334.15;;;4.85;91.94
44453;BME280;30155;52.164;21.236;2023-12-20T15:26:26;99333.42;;;4.83;91.84
44453;BME280;30155;52.164;21.236;2023-12-20T15:31:30;99328.23;;;4.81;91.45
44453;BME280;30155;52.164;21.236;2023-12-20T15:36:31;99325.27;;;4.78;91.14
44453;BME280;30155;52.164;21.236;2023-12-20T15:41:22;99320.79;;;4.77;91.48
44453;BME280;30155;52.164;21.236;2023-12-20T15:46:14;99317.67;;;4.76;91.07
44453;BME280;30155;52.164;21.236;2023-12-20T15:51:09;99316.27;;;4.74;91.19
44453;BME280;30155;52.164;21.236;2023-12-20T15:56:09;99312.29;;;4.72;90.89
44453;BME280;30155;52.164;21.236;2023-12-20T16:01:04;99315.74;;;4.73;91.09
44453;BME280;30155;52.164;21.236;2023-12-20T16:05:56;99306.79;;;4.73;91.05
44453;BME280;30155;52.164;21.236;2023-12-20T16:16:52;99278.54;;;4.67;90.70
44453;BME280;30155;52.164;21.236;2023-12-20T16:21:43;99278.41;;;4.69;90.60
44453;BME280;30155;52.164;21.236;2023-12-20T16:26:35;99283.21;;;4.69;90.43
44453;BME280;30155;52.164;21.236;2023-12-20T16:31:27;99278.25;;;4.70;90.56
44453;BME280;30155;52.164;21.236;2023-12-20T16:36:21;99273.79;;;4.69;90.39
44453;BME280;30155;52.164;21.236;2023-12-20T16:41:12;99269.47;;;4.68;90.35
44453;BME280;30155;52.164;21.236;2023-12-20T17:14:20;99263.67;;;4.70;89.52
44453;BME280;30155;52.164;21.236;2023-12-20T17:20:37;99265.58;;;4.72;89.26
44453;BME280;30155;52.164;21.236;2023-12-20T18:48:42;99182.34;;;4.72;87.95
44453;BME280;30155;52.164;21.236;2023-12-20T19:08:23;99173.27;;;4.63;88.02
44453;BME280;30155;52.164;21.236;2023-12-20T19:14:20;99174.66;;;4.64;87.90
44453;BME280;30155;52.164;21.236;2023-12-20T19:41:04;99203.14;;;4.43;88.68
44453;BME280;30155;52.164;21.236;2023-12-20T20:06:37;99223.20;;;3.63;88.33
44453;BME280;30155;52.164;21.236;2023-12-20T20:13:10;99207.35;;;3.50;88.49
44453;BME280;30155;52.164;21.236;2023-12-20T20:39:15;99221.20;;;3.26;89.01
44453;BME280;30155;52.164;21.236;2023-12-20T20:45:08;99222.20;;;3.24;89.20
44453;BME280;30155;52.164;21.236;2023-12-20T20:50:37;99232.56;;;3.20;89.17
44453;BME280;30155;52.164;21.236;2023-12-20T21:02:17;99235.45;;;3.04;88.92
44453;BME280;30155;52.164;21.236;2023-12-20T21:07:57;99240.23;;;2.96;89.45
44453;BME280;30155;52.164;21.236;2023-12-20T21:13:31;99238.45;;;2.86;89.07
44453;BME280;30155;52.164;21.236;2023-12-20T21:32:24;99235.56;;;2.87;89.77
44453;BME280;30155;52.164;21.236;2023-12-20T22:11:56;99258.58;;;2.98;90.05
44453;BME280;30155;52.164;21.236;2023-12-20T22:18:30;99260.07;;;3.10;89.80
44453;BME280;30155;52.164;21.236;2023-12-20T22:44:32;99255.21;;;3.30;87.39
44453;BME280;30155;52.164;21.236;2023-12-20T22:50:42;99250.45;;;3.32;87.33
44453;BME280;30155;52.164;21.236;2023-12-20T22:56:35;99246.37;;;3.32;87.04
44453;BME280;30155;52.164;21.236;2023-12-20T23:02:41;99247.50;;;3.29;87.03
44453;BME280;30155;52.164;21.236;2023-12-20T23:35:06;99251.70;;;3.26;87.61
44453;BME280;30155;52.164;21.236;2023-12-20T23:48:24;99235.77;;;3.34;87.21
